Nordbaltic — P3QN9 — position and weather

sailwx.info

Track history (hours):
 
Tides and Currents Weather Stations Pressure Air Temp Water Temp Dewpoint Dewpoint Depression Visibility Wind Speed Wind Dir Waves Ship Positions

Nordbaltic

Last reported at 2018-Jun-02 14:35 UTC. Time now 2018-Jun-18 11:10 UTC.
Position N 04°56' E 000°11'.
Warning: this ship's position is 15 days out of date.

Length 207 m; draft 11.3 m.

Type: Cargo ship. MMSI: 210117000.

Date/timePositionNaut miles runAvg speedWind from/ knotsBaromVisibWave heightAir tempDewpointWater temp
2018-Jun-02 14:35N 04°56' E 000°11'213.8
2018-Jun-02 14:27N 04°56' E 000°09'914.1
2018-Jun-02 13:50N 04°52' E 000°01'514.0
2018-Jun-02 13:30N 04°51' W 000°04'714.1
2018-Jun-02 13:00N 04°48' W 000°10'  
2018-May-26 17:43N 28°26' W 013°31'413.7
2018-May-26 17:27N 28°30' W 013°30'713.8
2018-May-26 16:58N 28°36' W 013°26'713.9
2018-May-26 16:30N 28°42' W 013°23'713.8
2018-May-26 16:00N 28°48' W 013°20'713.6
2018-May-26 15:30N 28°54' W 013°16'713.6
2018-May-26 15:00N 28°60' W 013°13'713.6
2018-May-26 14:30N 29°06' W 013°10'56113.4
2018-May-24 20:31N 35°57' W 005°37'113.3
2018-May-24 20:27N 35°58' W 005°35'612.4
2018-May-24 20:00N 35°60' W 005°29'611.7
2018-May-24 19:30N 36°02' W 005°22'612.2
2018-May-24 19:00N 36°08' W 005°24'2 3.2
2018-May-24 18:30N 36°08' W 005°26'0 0.1
2018-May-24 17:45N 36°08' W 005°26'0 0.0
2018-May-24 17:30N 36°08' W 005°26'0 0.0
2018-May-24 16:57N 36°08' W 005°26'0 0.0
2018-May-24 16:18N 36°08' W 005°26'0 0.0
2018-May-24 08:39N 36°08' W 005°26'0 0.0
2018-May-24 08:15N 36°08' W 005°26'0 0.0
2018-May-24 06:36N 36°08' W 005°26'0 0.0
2018-May-24 06:27N 36°08' W 005°26'0 0.0
2018-May-24 05:57N 36°08' W 005°26'0 0.0
2018-May-24 05:27N 36°08' W 005°26'0 0.0
2018-May-24 04:59N 36°08' W 005°26'2 3.1
2018-May-24 04:30N 36°08' W 005°24'3 6.3
2018-May-24 04:00N 36°06' W 005°23'5 9.2
2018-May-24 03:30N 36°05' W 005°17'611.2
2018-May-24 03:00N 36°07' W 005°11'811.5
2018-May-24 02:20N 36°11' W 005°02'1 0.1
2018-May-23 19:45N 36°11' W 005°03'  
Track history (hours):
 
Tides and Currents Weather Stations Pressure Air Temp Water Temp Dewpoint Dewpoint Depression Visibility Wind Speed Wind Dir Waves Ship Positions

Nordbaltic

Last reported at 2018-Jun-02 14:35 UTC. Time now 2018-Jun-18 11:10 UTC.
Position N 04°56' E 000°11'.
Warning: this ship's position is 15 days out of date.

Length 207 m; draft 11.3 m.

Type: Cargo ship. MMSI: 210117000.

Date/timePositionNaut miles runAvg speedWind from/ knotsBaromVisibWave heightAir tempDewpointWater temp
2018-Jun-02 14:35N 04°56' E 000°11'213.8
2018-Jun-02 14:27N 04°56' E 000°09'914.1
2018-Jun-02 13:50N 04°52' E 000°01'514.0
2018-Jun-02 13:30N 04°51' W 000°04'714.1
2018-Jun-02 13:00N 04°48' W 000°10'  
2018-May-26 17:43N 28°26' W 013°31'413.7
2018-May-26 17:27N 28°30' W 013°30'713.8
2018-May-26 16:58N 28°36' W 013°26'713.9
2018-May-26 16:30N 28°42' W 013°23'713.8
2018-May-26 16:00N 28°48' W 013°20'713.6
2018-May-26 15:30N 28°54' W 013°16'713.6
2018-May-26 15:00N 28°60' W 013°13'713.6
2018-May-26 14:30N 29°06' W 013°10'56113.4
2018-May-24 20:31N 35°57' W 005°37'113.3
2018-May-24 20:27N 35°58' W 005°35'612.4
2018-May-24 20:00N 35°60' W 005°29'611.7
2018-May-24 19:30N 36°02' W 005°22'612.2
2018-May-24 19:00N 36°08' W 005°24'2 3.2
2018-May-24 18:30N 36°08' W 005°26'0 0.1
2018-May-24 17:45N 36°08' W 005°26'0 0.0
2018-May-24 17:30N 36°08' W 005°26'0 0.0
2018-May-24 16:57N 36°08' W 005°26'0 0.0
2018-May-24 16:18N 36°08' W 005°26'0 0.0
2018-May-24 08:39N 36°08' W 005°26'0 0.0
2018-May-24 08:15N 36°08' W 005°26'0 0.0
2018-May-24 06:36N 36°08' W 005°26'0 0.0
2018-May-24 06:27N 36°08' W 005°26'0 0.0
2018-May-24 05:57N 36°08' W 005°26'0 0.0
2018-May-24 05:27N 36°08' W 005°26'0 0.0
2018-May-24 04:59N 36°08' W 005°26'2 3.1
2018-May-24 04:30N 36°08' W 005°24'3 6.3
2018-May-24 04:00N 36°06' W 005°23'5 9.2
2018-May-24 03:30N 36°05' W 005°17'611.2
2018-May-24 03:00N 36°07' W 005°11'811.5
2018-May-24 02:20N 36°11' W 005°02'1 0.1
2018-May-23 19:45N 36°11' W 005°03'  

Dump ship's entire track history